This is the latest recevied weather packets stored in our database for station/object KF0ZH. If no packets are shown the sender has not sent any weather packets the latest 10 day(s).
| Time | Temp. | Humidity | Pressure | Rain* | Wind** | Luminosity | Snow |
|---|---|---|---|---|---|---|---|
| 1787762823 | 22.78° C | 75% | 1013.5 hPa | 0 mm | 3.13 m/s, 358° | - | - |
| 1787762529 | 23.33° C | 73% | 1013.4 hPa | 0 mm | 3.58 m/s, 343° | - | - |
| 1787762223 | 23.33° C | 74% | 1013.3 hPa | 0 mm | 2.24 m/s, 330° | - | - |
| 1787761924 | 22.78° C | 76% | 1013.3 hPa | 0 mm | 3.58 m/s, 331° | - | - |
| 1787761625 | 23.33° C | 75% | 1013.3 hPa | 0 mm | 4.02 m/s, 322° | - | - |
| 1787761323 | 23.33° C | 74% | 1013.4 hPa | 0 mm | 0.89 m/s, 8° | - | - |
| 1787761023 | 23.33° C | 75% | 1013.3 hPa | 0 mm | 0 m/s | - | - |
| 1787760423 | 22.78° C | 77% | 1013.2 hPa | 0 mm | 1.79 m/s, 316° | - | - |
| 1787760123 | 22.78° C | 77% | 1013.2 hPa | 0 mm | 3.13 m/s, 286° | - | - |
| 1787759823 | 22.78° C | 79% | 1013.1 hPa | 0 mm | 1.79 m/s, 307° | - | - |
| 1787759523 | 22.78° C | 80% | 1013.2 hPa | 0 mm | 1.34 m/s, 324° | - | - |
| 1787759223 | 22.22° C | 80% | 1013.2 hPa | 0 mm | 2.24 m/s, 341° | - | - |
| 1787758623 | 22.22° C | 82% | 1013.3 hPa | 0 mm | 1.79 m/s, 352° | - | - |
| 1787758324 | 21.67° C | 82% | 1013.2 hPa | 0 mm | 2.68 m/s, 264° | - | - |
| 1787758023 | 21.67° C | 83% | 1013.2 hPa | 0 mm | 1.34 m/s, 352° | - | - |
| 1787757723 | 21.67° C | 83% | 1013.3 hPa | 0 mm | 2.24 m/s, 265° | - | - |
| 1787757423 | 21.67° C | 82% | 1013.2 hPa | 0 mm | 3.13 m/s, 326° | - | - |
| 1787757123 | 21.67° C | 82% | 1013.2 hPa | 0 mm | 3.13 m/s, 315° | - | - |
| 1787756824 | 21.67° C | 83% | 1013.2 hPa | 0 mm | 2.68 m/s, 299° | - | - |
| 1787756529 | 21.11° C | 84% | 1013.1 hPa | 0 mm | 0.89 m/s, 291° | - | - |
| 1787756223 | 21.11° C | 84% | 1013.2 hPa | 0 mm | 1.34 m/s, 354° | - | - |
| 1787755923 | 21.11° C | 84% | 1013.1 hPa | 0 mm | 2.68 m/s, 358° | - | - |
| 1787755623 | 21.11° C | 84% | 1013.1 hPa | 0 mm | 2.68 m/s, 286° | - | - |
| 1787755023 | 21.11° C | 85% | 1013.1 hPa | 0 mm | 0 m/s | - | - |
| 1787754723 | 21.11° C | 84% | 1013.1 hPa | 0 mm | 3.58 m/s, 313° | - | - |
* Rain latest hour (hover to see other rain measurements)
** Current wind speed in m/s (hover to see current wind gust speed)